createdAt,value
2019-04-05T00:00:12.414Z,95893.22
2019-04-05T00:05:08.780Z,95874.05
2019-04-05T00:10:05.225Z,95877.30
2019-04-05T00:15:14.586Z,95871.52
2019-04-05T00:20:00.018Z,95881.01
2019-04-05T00:24:56.185Z,95879.43
2019-04-05T00:29:52.245Z,95880.17
2019-04-05T00:34:48.401Z,95890.44
2019-04-05T00:39:44.764Z,95895.38
2019-04-05T00:44:41.911Z,95888.97
2019-04-05T00:49:38.013Z,95898.03
2019-04-05T00:54:34.101Z,95907.58
2019-04-05T00:59:30.299Z,95908.30
2019-04-05T01:04:26.382Z,95911.71
2019-04-05T01:09:22.738Z,95917.32
2019-04-05T01:14:19.481Z,95915.02
2019-04-05T01:19:17.175Z,95922.48
2019-04-05T01:24:14.409Z,95910.77
2019-04-05T01:29:10.736Z,95905.40
2019-04-05T01:34:06.776Z,95905.75
2019-04-05T01:39:03.085Z,95910.77
2019-04-05T01:43:59.234Z,95901.64
2019-04-05T01:48:55.264Z,95896.22
2019-04-05T01:53:51.452Z,95892.86
2019-04-05T01:58:47.678Z,95895.38
2019-04-05T02:03:43.749Z,95899.87
2019-04-05T02:08:40.226Z,95904.52
2019-04-05T02:13:36.386Z,95905.34
2019-04-05T02:18:32.601Z,95916.73
2019-04-05T02:23:37.086Z,95907.25
2019-04-05T02:28:33.137Z,95907.66
2019-04-05T02:33:29.365Z,95900.92
2019-04-05T02:38:25.395Z,95905.18
2019-04-05T02:43:24.991Z,95902.75
2019-04-05T02:48:22.643Z,95911.66
2019-04-05T02:53:22.221Z,95905.81
2019-04-05T02:58:19.139Z,95898.28
2019-04-05T03:03:17.215Z,95899.45
2019-04-05T03:08:14.087Z,95902.56
2019-04-05T03:13:10.422Z,95902.40
2019-04-05T03:18:07.063Z,95901.73
2019-04-05T03:23:03.589Z,95899.22
2019-04-05T03:28:00.306Z,95917.48
2019-04-05T03:32:56.559Z,95903.86
2019-04-05T03:37:52.840Z,95899.99
2019-04-05T03:42:49.324Z,95905.59
2019-04-05T03:47:45.499Z,95904.06
2019-04-05T03:52:41.936Z,95908.07
2019-04-05T03:57:38.829Z,95911.30
2019-04-05T04:02:34.965Z,95913.38
2019-04-05T04:07:31.350Z,95907.94
2019-04-05T04:12:30.664Z,95906.59
2019-04-05T04:17:30.726Z,95902.28
2019-04-05T04:22:31.795Z,95901.58
2019-04-05T04:27:30.264Z,95895.91
2019-04-05T04:32:27.119Z,95898.86
2019-04-05T04:37:34.993Z,95891.25
2019-04-05T04:42:32.100Z,95885.37
2019-04-05T04:47:30.099Z,95887.25
2019-04-05T04:52:27.024Z,95882.42
2019-04-05T04:57:23.671Z,95893.16
2019-04-05T05:02:20.508Z,95882.34
2019-04-05T05:14:13.018Z,95894.26
2019-04-05T05:19:05.284Z,95897.98
2019-04-05T05:24:03.318Z,95911.65
2019-04-05T05:29:02.406Z,95903.03
2019-04-05T05:33:59.278Z,95907.40
2019-04-05T06:11:29.415Z,95923.55
2019-04-05T06:16:26.214Z,95922.44
2019-04-05T06:21:28.663Z,95919.43
2019-04-05T06:26:29.622Z,95922.25
2019-04-05T06:31:40.904Z,95907.56
2019-04-05T06:36:55.055Z,95909.54
2019-04-05T06:41:50.957Z,95909.78
2019-04-05T06:46:49.119Z,95899.56
2019-04-05T06:52:09.210Z,95902.79
2019-04-05T06:57:17.529Z,95903.61
2019-04-05T07:02:23.661Z,95892.09
2019-04-05T07:07:20.968Z,95893.64
2019-04-05T07:12:20.444Z,95893.77
2019-04-05T07:17:15.689Z,95902.34
2019-04-05T07:22:11.621Z,95899.23
2019-04-05T07:27:10.807Z,95897.06
2019-04-05T07:32:17.808Z,95901.23
2019-04-05T07:37:20.604Z,95905.33
2019-04-05T07:42:16.791Z,95902.72
2019-04-05T07:47:13.045Z,95895.63
2019-04-05T07:52:08.873Z,95913.98
2019-04-05T07:57:04.750Z,95911.16
2019-04-05T08:02:00.673Z,95903.45
2019-04-05T08:07:00.384Z,95905.40
2019-04-05T08:12:04.786Z,95913.58
2019-04-05T08:17:00.869Z,95907.63
2019-04-05T08:21:59.242Z,95905.25
2019-04-05T08:26:55.195Z,95901.06
2019-04-05T08:31:51.111Z,95892.30
2019-04-05T08:36:46.969Z,95885.68
2019-04-05T08:41:44.830Z,95879.42
2019-04-05T08:46:45.871Z,95881.55
2019-04-05T08:51:52.222Z,95880.58
2019-04-05T08:57:02.398Z,95880.20
2019-04-05T09:02:13.673Z,95869.70
2019-04-05T09:07:23.170Z,95868.64
2019-04-05T09:12:40.171Z,95860.80
2019-04-05T09:17:53.422Z,95860.06
2019-04-05T09:23:10.819Z,95850.94
2019-04-05T09:28:22.594Z,95853.78
2019-04-05T09:33:40.285Z,95847.72
2019-04-05T09:39:00.365Z,95839.48
2019-04-05T09:44:13.289Z,95836.88
2019-04-05T09:55:29.428Z,95817.19
2019-04-05T10:00:35.809Z,95819.30
2019-04-05T10:05:39.142Z,95814.94
2019-04-05T10:10:49.587Z,95815.55
2019-04-05T10:15:36.618Z,95804.95
2019-04-05T10:20:45.523Z,95801.59
2019-04-05T10:25:47.245Z,95795.08
2019-04-05T10:31:00.357Z,95795.20
2019-04-05T10:36:16.581Z,95795.08
2019-04-05T10:41:35.534Z,95792.66
2019-04-05T15:20:50.031Z,95677.94
2019-04-05T15:48:32.692Z,95679.87
2019-04-05T15:54:33.334Z,95685.94
2019-04-05T16:05:32.138Z,95679.10
2019-04-05T16:10:37.730Z,95689.72
2019-04-05T16:16:33.594Z,95687.02
2019-04-05T16:21:38.943Z,95685.38
2019-04-05T16:26:41.884Z,95684.52
2019-04-05T16:31:50.889Z,95700.05
2019-04-05T16:36:58.093Z,95701.91
2019-04-05T16:41:54.034Z,95711.59
2019-04-05T16:46:50.098Z,95713.53
2019-04-05T16:51:46.361Z,95719.69
2019-04-05T16:56:44.898Z,95726.41
2019-04-05T17:14:50.022Z,95724.23
2019-04-05T17:20:24.158Z,95726.19
2019-04-05T17:25:31.902Z,95735.64
2019-04-05T17:30:41.536Z,95727.50
2019-04-05T17:35:43.850Z,95730.69
2019-04-05T17:48:43.113Z,95735.39
2019-04-05T17:54:17.464Z,95735.70
2019-04-05T18:00:10.244Z,95742.11
2019-04-05T18:11:04.708Z,95738.40
2019-04-05T18:16:46.809Z,95739.75
2019-04-05T18:22:19.619Z,95749.20
2019-04-05T18:28:39.909Z,95750.77
2019-04-05T18:45:46.403Z,95775.74
2019-04-05T18:50:56.031Z,95778.84
2019-04-05T18:55:57.372Z,95786.95
2019-04-05T19:00:54.745Z,95796.63
2019-04-05T19:05:53.088Z,95794.61
2019-04-05T19:10:48.926Z,95808.66
2019-04-05T19:15:45.949Z,95803.23
2019-04-05T19:20:42.242Z,95810.19
2019-04-05T19:25:42.043Z,95804.77
2019-04-05T19:50:42.241Z,95813.49
2019-04-05T19:55:39.613Z,95822.00
2019-04-05T20:00:35.573Z,95812.19
2019-04-05T20:05:31.745Z,95817.39
2019-04-05T20:10:27.979Z,95813.83
2019-04-05T20:15:25.347Z,95804.48
2019-04-05T20:20:27.623Z,95809.94
2019-04-05T20:25:24.935Z,95816.20
2019-04-05T20:30:21.989Z,95819.88
2019-04-05T20:35:17.823Z,95817.61
2019-04-05T20:40:14.281Z,95819.13
2019-04-05T20:45:12.676Z,95815.83
2019-04-05T20:50:11.020Z,95812.73
2019-04-05T20:55:13.241Z,95820.28
2019-04-05T21:00:10.664Z,95823.96
2019-04-05T21:05:07.298Z,95821.58
2019-04-05T21:10:03.357Z,95824.11
2019-04-05T21:14:59.436Z,95823.11
2019-04-05T21:20:07.083Z,95822.56
2019-04-05T21:25:03.048Z,95821.85
2019-04-05T21:29:59.002Z,95833.52
2019-04-05T21:34:54.999Z,95838.72
2019-04-05T21:39:51.014Z,95832.64
2019-04-05T21:44:47.260Z,95836.12
2019-04-05T21:49:43.449Z,95843.23
2019-04-05T21:54:53.355Z,95854.31
2019-04-05T21:59:49.192Z,95854.49
2019-04-05T22:04:45.173Z,95852.45
2019-04-05T22:09:44.041Z,95860.44
2019-04-05T22:14:40.315Z,95866.05
2019-04-05T22:19:36.303Z,95867.77
2019-04-05T22:24:32.525Z,95867.80
2019-04-05T22:29:28.533Z,95866.14
2019-04-05T22:34:24.481Z,95863.94
2019-04-05T22:39:21.510Z,95872.38
2019-04-05T22:44:19.389Z,95864.84
2019-04-05T22:49:15.252Z,95867.08
2019-04-05T22:54:11.295Z,95871.65
2019-04-05T22:59:07.183Z,95879.11
2019-04-05T23:04:06.220Z,95871.38
2019-04-05T23:09:11.331Z,95866.03
2019-04-05T23:14:16.792Z,95875.47
2019-04-05T23:19:28.654Z,95875.65
2019-04-05T23:24:37.653Z,95866.72
2019-04-05T23:30:00.984Z,95871.97
2019-04-05T23:40:38.650Z,95882.48
2019-04-05T23:45:34.579Z,95884.42
2019-04-05T23:50:30.811Z,95884.94
2019-04-05T23:55:33.149Z,95882.66
